Weather History for Charlevoix, MI

Change the Weather History Date:

Sunday, June 17, 2012

  Actual Average Record
Temperature  
Mean Temperature 68 °F -  
Max Temperature 73 °F 70 °F 91 °F (2006)
Min Temperature 62 °F 55 °F 44 °F (2002)
Cooling Degree Days 2    
Growing Degree Days 18 (Base 50)    
Moisture  
Dew Point 58 °F    
Average Humidity 70    
Maximum Humidity 95    
Minimum Humidity 47    
Precipitation  
Precipitation 0.00 in - - ()
Sea Level Pressure  
Sea Level Pressure 29.81 in    
Wind  
Wind Speed 10 mph (SW)    
Max Wind Speed 16 mph    
Max Gust Speed 22 mph    
Visibility 10 miles    
Events Rain    
Averages and records for this station are not official NWS values.
T = Trace of Precipitation, MM = Missing Value Source: NWS Daily Summary

Daily Weather History Graph

Daily Weather History Graph

Search for Another Location

Airport:

Trip Planner

Search our weather history database for the weather conditions in past years. The results will help you decide how hot, cold, wet, or windy it might be!

Date:

Astronomy

Jun. 17, 2012 Rise Set
Actual Time 5:52 AM EDT 9:31 PM EDT
Civil Twilight 5:14 AM EDT 10:09 PM EDT
Nautical Twilight 4:24 AM EDT 10:59 PM EDT
Astronomical Twilight 3:16 AM EDT 12:07 AM EDT
Moon 4:24 AM EDT (6/17) 7:57 PM EDT (6/17)
Length of Visible Light 16h 54m
Length of Day
15h 39m
Waning Crescent, 4% of the Moon is Illuminated
Jun 17
Waning Crescent
Jun 19
New
Jun 26
First Quarter
Jul 3
Full
Jul 10
Last Quarter

Hourly Weather History & Observations

Time (EDT) Temp. Dew Point Humidity Pressure Visibility Wind Dir Wind Speed Gust Speed Precip Events Conditions
12:34 AM 68.2 °F 66.2 °F 93% 29.83 in 10.0 mi SSE 6.9 mph - N/A   Overcast
12:54 AM 68.2 °F 66.2 °F 93% 29.81 in 10.0 mi SE 5.8 mph - N/A   Overcast
1:14 AM 68.2 °F 66.2 °F 93% 29.80 in 10.0 mi SE 8.1 mph - N/A   Scattered Clouds
1:34 AM 68.0 °F 66.2 °F 94% 29.80 in 10.0 mi SE 9.2 mph - N/A   Clear
1:55 AM 68.0 °F 66.2 °F 94% 29.79 in 10.0 mi SE 9.2 mph - N/A   Clear
2:14 AM 67.8 °F 66.2 °F 95% 29.79 in 7.0 mi SSE 6.9 mph - N/A   Clear
2:34 AM 68.5 °F 66.2 °F 92% 29.79 in 10.0 mi South 10.4 mph 16.1 mph N/A   Mostly Cloudy
2:54 AM 69.3 °F 66.2 °F 90% 29.78 in 10.0 mi South 11.5 mph 17.3 mph N/A   Scattered Clouds
3:14 AM 69.3 °F 66.2 °F 90% 29.77 in 10.0 mi SSW 10.4 mph 17.3 mph N/A   Scattered Clouds
3:34 AM 69.3 °F 66.2 °F 90% 29.77 in 10.0 mi South 9.2 mph - N/A   Mostly Cloudy
3:54 AM 69.4 °F 65.7 °F 88% 29.77 in 10.0 mi South 12.7 mph 18.4 mph N/A   Mostly Cloudy
4:14 AM 69.1 °F 65.7 °F 89% 29.79 in 7.0 mi SSW 11.5 mph 19.6 mph N/A Rain Light Rain
4:34 AM 68.2 °F 65.7 °F 92% 29.78 in 10.0 mi SSW 13.8 mph 20.7 mph N/A Rain Light Rain
4:54 AM 68.0 °F 65.8 °F 93% 29.79 in 10.0 mi SSW 10.4 mph 17.3 mph N/A   Mostly Cloudy
5:14 AM 68.2 °F 65.8 °F 92% 29.80 in 10.0 mi SSW 13.8 mph 19.6 mph N/A   Mostly Cloudy
5:34 AM 68.2 °F 65.8 °F 92% 29.80 in 10.0 mi SSW 12.7 mph 18.4 mph N/A   Mostly Cloudy
5:54 AM 68.0 °F 65.5 °F 92% 29.81 in 10.0 mi SSW 11.5 mph 18.4 mph N/A   Mostly Cloudy
6:14 AM 67.5 °F 65.3 °F 93% 29.81 in 7.0 mi SSW 10.4 mph 17.3 mph N/A   Overcast
6:34 AM 67.1 °F 64.9 °F 93% 29.82 in 5.0 mi SW 10.4 mph - N/A Rain Heavy Rain
6:54 AM 66.2 °F 64.4 °F 94% 29.82 in 4.0 mi WSW 16.1 mph 20.7 mph N/A Rain Rain
7:14 AM 64.8 °F 62.8 °F 93% 29.82 in 10.0 mi SW 11.5 mph 18.4 mph N/A   Overcast
7:34 AM 64.2 °F 61.9 °F 92% 29.80 in 5.0 mi West 12.7 mph 19.6 mph N/A Rain Rain
7:54 AM 62.6 °F 59.2 °F 89% 29.81 in 10.0 mi West 12.7 mph - N/A   Overcast
8:14 AM 62.8 °F 59.2 °F 88% 29.80 in 10.0 mi WSW 6.9 mph - N/A   Overcast
8:35 AM 62.4 °F 59.4 °F 90% 29.81 in 10.0 mi WSW 5.8 mph - N/A   Overcast
8:54 AM 62.8 °F 58.8 °F 87% 29.82 in 10.0 mi WSW 9.2 mph - N/A   Overcast
9:14 AM 63.7 °F 59.7 °F 87% 29.82 in 10.0 mi WSW 9.2 mph - N/A   Scattered Clouds
9:34 AM 66.6 °F 59.7 °F 79% 29.82 in 10.0 mi West 9.2 mph - N/A   Clear
9:54 AM 67.1 °F 58.6 °F 74% 29.83 in 10.0 mi West 10.4 mph - N/A   Clear
10:15 AM 67.5 °F 59.4 °F 75% 29.84 in 10.0 mi West 10.4 mph - N/A   Clear
10:34 AM 68.9 °F 58.5 °F 69% 29.84 in 10.0 mi West 9.2 mph - N/A   Clear
10:54 AM 70.3 °F 57.9 °F 65% 29.83 in 10.0 mi WSW 8.1 mph - N/A   Clear
11:15 AM 70.9 °F 58.8 °F 66% 29.84 in 10.0 mi West 12.7 mph 17.3 mph N/A   Clear
11:34 AM 69.8 °F 58.5 °F 67% 29.84 in 10.0 mi WSW 11.5 mph - N/A   Clear
11:54 AM 70.9 °F 59.0 °F 66% 29.84 in 10.0 mi West 10.4 mph - N/A   Clear
12:14 PM 71.6 °F 58.6 °F 64% 29.83 in 10.0 mi WSW 12.7 mph 16.1 mph N/A   Clear
12:34 PM 72.1 °F 59.4 °F 64% 29.83 in 10.0 mi WSW 12.7 mph 18.4 mph N/A   Scattered Clouds
12:54 PM 72.0 °F 59.9 °F 66% 29.83 in 10.0 mi WSW 11.5 mph 19.6 mph N/A   Clear
1:14 PM 71.2 °F 59.2 °F 66% 29.82 in 10.0 mi WSW 12.7 mph 17.3 mph N/A   Clear
1:34 PM 70.9 °F 59.2 °F 66% 29.82 in 10.0 mi West 13.8 mph 17.3 mph N/A   Clear
1:54 PM 70.7 °F 56.3 °F 60% 29.82 in 10.0 mi WSW 11.5 mph - N/A   Clear
2:14 PM 72.9 °F 56.3 °F 56% 29.82 in 10.0 mi WSW 15.0 mph 19.6 mph N/A   Clear
2:34 PM 72.3 °F 54.9 °F 54% 29.83 in 10.0 mi WSW 15.0 mph 19.6 mph N/A   Clear
2:55 PM 71.6 °F 51.8 °F 50% 29.82 in 10.0 mi WSW 12.7 mph 20.7 mph N/A   Clear
3:14 PM 72.5 °F 50.9 °F 47% 29.82 in 10.0 mi WSW 15.0 mph 19.6 mph N/A   Clear
3:34 PM 72.5 °F 52.0 °F 48% 29.82 in 10.0 mi WSW 13.8 mph 19.6 mph N/A   Clear
3:55 PM 72.7 °F 52.0 °F 48% 29.82 in 10.0 mi WSW 12.7 mph 20.7 mph N/A   Clear
4:14 PM 72.5 °F 51.8 °F 48% 29.82 in 10.0 mi WSW 12.7 mph 19.6 mph N/A   Clear
4:34 PM 73.4 °F 52.3 °F 48% 29.82 in 10.0 mi WSW 15.0 mph 20.7 mph N/A   Clear
4:55 PM 72.5 °F 52.0 °F 48% 29.82 in 10.0 mi WSW 16.1 mph 20.7 mph N/A   Clear
5:14 PM 72.7 °F 52.2 °F 48% 29.81 in 10.0 mi WSW 15.0 mph 20.7 mph N/A   Clear
5:34 PM 72.7 °F 51.3 °F 47% 29.81 in 10.0 mi WSW 16.1 mph 21.9 mph N/A   Clear
5:54 PM 72.9 °F 51.3 °F 47% 29.82 in 10.0 mi WSW 12.7 mph 20.7 mph N/A   Clear
6:14 PM 72.5 °F 51.1 °F 47% 29.81 in 10.0 mi WSW 13.8 mph 17.3 mph N/A   Clear
6:34 PM 72.5 °F 51.6 °F 48% 29.81 in 10.0 mi SW 10.4 mph - N/A   Clear
6:54 PM 72.5 °F 51.8 °F 48% 29.80 in 10.0 mi SW 9.2 mph - N/A   Clear
7:14 PM 72.7 °F 51.1 °F 47% 29.80 in 10.0 mi SW 11.5 mph 16.1 mph N/A   Clear
7:34 PM 72.1 °F 50.7 °F 47% 29.81 in 10.0 mi SW 5.8 mph - N/A   Clear
7:54 PM 71.6 °F 51.6 °F 49% 29.81 in 10.0 mi SSW 5.8 mph - N/A   Clear
8:14 PM 70.2 °F 52.3 °F 53% 29.81 in 10.0 mi South 4.6 mph - N/A   Clear
8:35 PM 68.9 °F 52.9 °F 57% 29.81 in 10.0 mi South 3.5 mph - N/A   Clear
8:54 PM 68.5 °F 52.7 °F 57% 29.81 in 10.0 mi South 4.6 mph - N/A   Clear
9:14 PM 68.0 °F 52.7 °F 58% 29.81 in 10.0 mi South 3.5 mph - N/A   Clear
9:35 PM 68.0 °F 52.0 °F 56% 29.81 in 7.0 mi South 5.8 mph - N/A   Clear
9:54 PM 67.6 °F 51.8 °F 57% 29.81 in 7.0 mi South 4.6 mph - N/A   Clear
10:14 PM 67.5 °F 52.2 °F 58% 29.81 in 10.0 mi SSE 3.5 mph - N/A   Clear
10:35 PM 66.2 °F 53.1 °F 63% 29.81 in 10.0 mi South 3.5 mph - N/A   Clear
10:54 PM 66.6 °F 52.0 °F 59% 29.80 in 10.0 mi South 3.5 mph - N/A   Clear
11:14 PM 66.4 °F 51.8 °F 59% 29.79 in 10.0 mi South 4.6 mph - N/A   Clear
11:34 PM 66.2 °F 51.8 °F 60% 29.78 in 10.0 mi SSE 3.5 mph - N/A   Clear
11:54 PM 64.9 °F 53.6 °F 67% 29.78 in 10.0 mi SE 4.6 mph - N/A   Clear